Time;durP1;ratioP1;P1;durP2;ratioP2;P2;SDS_P1;SDS_P2;PMS_P1;PMS_P2;Temp;Humidity;BMP_temperature;BMP_pressure;BME280_temperature;BME280_humidity;BME280_pressure;Samples;Min_cycle;Max_cycle;Signal;HPM_P1;HPM_P2
2023/01/22 00:00:56;;;;;;;368.92;127.06;;;;;;;7.23;100.00;99490.91;2488642;27;20509;-76
2023/01/22 00:01:11;;;;;;;377.70;134.48;;;;;;;7.24;100.00;99491.75;353127;28;863;-77
2023/01/22 00:01:24;;;;;;;374.83;132.98;;;;;;;7.24;100.00;99491.75;349165;28;1467;-77
2023/01/22 00:01:34;;;;;;;378.06;133.94;;;;;;;7.26;100.00;99488.22;350247;28;3763;-76
2023/01/22 00:01:45;;;;;;;381.30;135.35;;;;;;;7.28;100.00;99490.75;346486;28;5583;-76
2023/01/22 00:01:56;;;;;;;383.67;135.20;;;;;;;7.28;100.00;99493.38;346577;28;3281;-76
2023/01/22 00:02:06;;;;;;;390.40;137.75;;;;;;;7.27;100.00;99495.13;347433;28;1651;-76
2023/01/22 00:02:17;;;;;;;389.27;136.53;;;;;;;7.29;100.00;99492.47;346983;28;3158;-76
2023/01/22 00:02:27;;;;;;;388.13;134.57;;;;;;;7.28;100.00;99491.63;346033;28;1298;-76
2023/01/22 00:02:37;;;;;;;377.67;132.40;;;;;;;7.29;100.00;99489.88;347482;28;3927;-75
2023/01/22 00:02:48;;;;;;;379.07;132.27;;;;;;;7.28;100.00;99489.00;347819;28;3644;-75
2023/01/22 00:02:58;;;;;;;381.73;134.32;;;;;;;7.29;100.00;99497.69;351701;28;1726;-75
2023/01/22 00:03:09;;;;;;;384.27;134.90;;;;;;;7.30;100.00;99496.78;351656;28;1580;-75
2023/01/22 00:03:19;;;;;;;380.67;132.65;;;;;;;7.30;100.00;99491.56;350226;28;3628;-75
2023/01/22 00:03:30;;;;;;;377.60;130.73;;;;;;;7.31;100.00;99493.28;350034;28;1291;-75
2023/01/22 00:03:40;;;;;;;379.38;131.00;;;;;;;7.31;100.00;99495.88;345854;28;5111;-75
2023/01/22 00:03:52;;;;;;;381.30;133.55;;;;;;;7.31;100.00;99490.69;349922;28;6190;-75
2023/01/22 00:04:04;;;;;;;384.92;138.90;;;;;;;7.31;100.00;99495.88;348913;28;1734;-76
2023/01/22 00:04:15;;;;;;;388.33;144.63;;;;;;;7.31;100.00;99495.88;347350;28;3333;-76
2023/01/22 00:04:25;;;;;;;385.42;142.35;;;;;;;7.31;100.00;99491.53;347732;28;884;-75
2023/01/22 00:04:36;;;;;;;381.80;135.73;;;;;;;7.30;100.00;99495.03;345773;28;5548;-75
2023/01/22 00:04:47;;;;;;;382.85;133.65;;;;;;;7.30;100.00;99497.63;347555;28;5781;-75
2023/01/22 00:04:57;;;;;;;381.73;134.90;;;;;;;7.29;100.00;99492.47;347247;28;1653;-76
2023/01/22 00:05:08;;;;;;;378.98;134.95;;;;;;;7.29;100.00;99492.47;344884;28;1274;-76
2023/01/22 00:05:18;;;;;;;379.42;131.57;;;;;;;7.30;100.00;99499.38;345915;28;3684;-76
2023/01/22 00:05:28;;;;;;;384.53;130.07;;;;;;;7.28;100.00;99493.38;344801;28;1102;-77
2023/01/22 00:05:39;;;;;;;387.85;132.07;;;;;;;7.28;100.00;99495.97;342289;28;5033;-76
2023/01/22 00:05:51;;;;;;;387.00;136.77;;;;;;;7.28;100.00;99501.19;349583;28;1594;-77
2023/01/22 00:06:01;;;;;;;390.05;140.88;;;;;;;7.26;100.00;99497.75;346157;28;1426;-77
2023/01/22 00:06:12;;;;;;;388.97;140.67;;;;;;;7.27;100.00;99499.47;344596;28;1719;-77
2023/01/22 00:06:25;;;;;;;381.67;139.63;;;;;;;7.27;100.00;99499.47;344977;28;3349;-77
2023/01/22 00:06:35;;;;;;;378.52;138.13;;;;;;;7.27;100.00;99496.88;344362;28;5177;-76
2023/01/22 00:06:46;;;;;;;381.58;136.27;;;;;;;7.27;100.00;99505.53;345982;28;3343;-77
2023/01/22 00:06:56;;;;;;;386.63;138.20;;;;;;;7.28;100.00;99501.19;346262;28;2833;-75
2023/01/22 00:07:07;;;;;;;386.42;138.18;;;;;;;7.27;100.00;99509.88;348178;28;1957;-77
2023/01/22 00:07:18;;;;;;;382.70;138.63;;;;;;;7.28;100.00;99504.63;346856;28;1130;-76
2023/01/22 00:07:28;;;;;;;383.95;137.15;;;;;;;7.28;100.00;99501.19;343549;28;1284;-77
2023/01/22 00:07:39;;;;;;;387.37;138.90;;;;;;;7.26;100.00;99497.75;334164;29;5610;-76
2023/01/22 00:07:49;;;;;;;391.13;139.45;;;;;;;7.29;100.00;99502.88;340874;28;4148;-74
2023/01/22 00:08:02;;;;;;;387.60;137.47;;;;;;;7.28;100.00;99506.38;340307;28;5411;-76
2023/01/22 00:08:12;;;;;;;381.23;136.65;;;;;;;7.29;100.00;99506.34;341587;28;4303;-76
2023/01/22 00:08:23;;;;;;;382.60;139.03;;;;;;;7.29;100.00;99508.09;339095;28;5433;-76
2023/01/22 00:08:33;;;;;;;381.05;137.95;;;;;;;7.29;100.00;99508.09;340459;28;5000;-76
2023/01/22 00:08:45;;;;;;;389.43;139.83;;;;;;;7.27;100.00;99510.75;337959;29;5972;-76
2023/01/22 00:09:02;;;;;;;389.10;140.30;;;;;;;7.27;100.00;99510.75;332719;29;4283;-75
2023/01/22 00:09:14;;;;;;;387.42;141.63;;;;;;;7.27;100.00;99509.88;336491;29;3901;-77
2023/01/22 00:09:25;;;;;;;394.73;143.48;;;;;;;7.27;100.00;99504.69;334088;29;5572;-77
2023/01/22 00:09:38;;;;;;;393.67;141.63;;;;;;;7.29;100.00;99513.28;333291;29;4181;-76
2023/01/22 00:09:49;;;;;;;387.60;140.07;;;;;;;7.30;100.00;99515.00;335578;29;5977;-76
2023/01/22 00:10:00;;;;;;;382.33;136.55;;;;;;;7.31;100.00;99514.09;330758;29;5539;-77
2023/01/22 00:10:10;;;;;;;379.23;135.77;;;;;;;7.31;100.00;99512.34;328163;30;994;-75
2023/01/22 00:10:21;;;;;;;379.20;137.10;;;;;;;7.30;100.00;99515.00;332536;29;4118;-76
2023/01/22 00:10:31;;;;;;;382.48;139.70;;;;;;;7.31;100.00;99516.72;339699;28;1324;-76
2023/01/22 00:10:50;;;;;;;382.23;138.83;;;;;;;7.30;100.00;99512.41;335303;29;4002;-75
2023/01/22 00:11:01;;;;;;;376.38;131.27;;;;;;;7.32;100.00;99521.00;328235;29;5168;-77
2023/01/22 00:11:11;;;;;;;373.63;130.15;;;;;;;7.30;100.00;99517.59;326689;30;1355;-76
2023/01/22 00:11:21;;;;;;;375.43;131.77;;;;;;;7.32;100.00;99523.63;326620;29;4195;-74
2023/01/22 00:11:32;;;;;;;374.73;132.50;;;;;;;7.29;100.00;99515.91;329044;29;3496;-75
2023/01/22 00:11:42;;;;;;;377.47;135.90;;;;;;;7.28;100.00;99516.78;325986;29;5461;-77
2023/01/22 00:11:53;;;;;;;377.83;136.83;;;;;;;7.29;100.00;99518.50;331372;29;3695;-76
2023/01/22 00:12:03;;;;;;;379.77;136.60;;;;;;;7.28;100.00;99515.03;327995;29;6377;-77
2023/01/22 00:12:15;;;;;;;381.02;135.02;;;;;;;7.28;100.00;99519.41;330404;29;1352;-77
2023/01/22 00:12:26;;;;;;;382.17;134.40;;;;;;;7.28;100.00;99516.78;324394;30;4248;-75
2023/01/22 00:12:36;;;;;;;383.98;135.65;;;;;;;7.27;100.00;99521.16;325155;30;3541;-77
2023/01/22 00:12:46;;;;;;;384.23;138.43;;;;;;;7.26;100.00;99518.59;322476;30;4505;-75
2023/01/22 00:12:57;;;;;;;381.83;138.13;;;;;;;7.27;100.00;99522.91;325415;30;3348;-76
2023/01/22 00:13:07;;;;;;;382.73;138.55;;;;;;;7.27;100.00;99520.28;319678;30;5500;-76
2023/01/22 00:13:18;;;;;;;378.77;136.33;;;;;;;7.27;100.00;99515.09;322168;30;5800;-76
2023/01/22 00:13:29;;;;;;;380.20;137.55;;;;;;;7.27;100.00;99515.09;320566;29;4327;-75
2023/01/22 00:13:39;;;;;;;380.30;137.45;;;;;;;7.27;100.00;99520.28;326711;30;1141;-76
2023/01/22 00:13:50;;;;;;;384.57;139.60;;;;;;;7.27;100.00;99520.28;321987;30;4246;-75
2023/01/22 00:14:00;;;;;;;385.27;137.30;;;;;;;7.26;100.00;99522.03;319823;30;3386;-75
2023/01/22 00:14:10;;;;;;;384.67;137.73;;;;;;;7.27;100.00;99520.28;319842;30;944;-75
2023/01/22 00:14:21;;;;;;;382.27;138.48;;;;;;;7.26;100.00;99522.03;324775;30;1813;-75
2023/01/22 00:14:32;;;;;;;383.47;139.57;;;;;;;7.25;100.00;99517.72;325691;30;3634;-75
2023/01/22 00:14:43;;;;;;;382.92;137.90;;;;;;;7.26;100.00;99523.78;320565;30;1964;-75
2023/01/22 00:14:53;;;;;;;384.07;137.87;;;;;;;7.25;100.00;99517.72;318347;30;5866;-75
2023/01/22 00:15:04;;;;;;;380.20;136.75;;;;;;;7.27;100.00;99522.91;321071;30;2254;-75
2023/01/22 00:15:14;;;;;;;382.35;136.25;;;;;;;7.26;100.00;99523.78;315488;30;5294;-76
2023/01/22 00:15:25;;;;;;;377.80;134.80;;;;;;;7.26;100.00;99529.00;314495;31;4026;-75
2023/01/22 00:15:37;;;;;;;375.13;134.80;;;;;;;7.26;100.00;99529.00;309109;31;5694;-75
2023/01/22 00:15:48;;;;;;;376.75;135.85;;;;;;;7.26;100.00;99518.59;307112;31;2804;-76
2023/01/22 00:15:58;;;;;;;384.83;141.53;;;;;;;7.25;100.00;99520.34;307138;31;3222;-76
2023/01/22 00:16:12;;;;;;;388.38;143.23;;;;;;;7.26;100.00;99518.59;307361;32;3755;-76
2023/01/22 00:16:24;;;;;;;383.00;140.60;;;;;;;7.25;100.00;99522.09;304424;32;939;-76
2023/01/22 00:16:35;;;;;;;378.20;138.75;;;;;;;7.27;100.00;99520.28;303024;32;4085;-77
2023/01/22 00:16:45;;;;;;;378.40;137.27;;;;;;;7.26;100.00;99518.59;303905;31;3326;-75
2023/01/22 00:16:55;;;;;;;375.17;133.60;;;;;;;7.27;100.00;99522.91;305290;32;4354;-76
2023/01/22 00:17:06;;;;;;;373.23;130.13;;;;;;;7.27;100.00;99525.50;302436;32;3403;-76
2023/01/22 00:17:16;;;;;;;375.87;131.77;;;;;;;7.27;100.00;99528.09;300051;32;6221;-75
2023/01/22 00:17:28;;;;;;;378.98;137.32;;;;;;;7.27;100.00;99531.56;301667;32;3769;-76
2023/01/22 00:17:38;;;;;;;385.58;142.45;;;;;;;7.26;100.00;99523.78;294906;33;4332;-76
2023/01/22 00:17:48;;;;;;;393.08;146.05;;;;;;;7.28;100.00;99527.22;299164;32;4180;-76
2023/01/22 00:17:59;;;;;;;395.13;145.23;;;;;;;7.29;100.00;99523.72;297548;32;4233;-75
2023/01/22 00:18:10;;;;;;;391.33;145.60;;;;;;;7.30;100.00;99525.41;300072;32;1376;-75
2023/01/22 00:18:20;;;;;;;382.17;140.67;;;;;;;7.30;100.00;99530.63;292751;32;4511;-74
2023/01/22 00:18:30;;;;;;;381.65;137.32;;;;;;;7.30;100.00;99521.06;295883;33;4899;-76
2023/01/22 00:18:42;;;;;;;377.60;136.47;;;;;;;7.30;100.00;99528.00;292768;33;4498;-75
2023/01/22 00:18:52;;;;;;;379.40;136.40;;;;;;;7.28;100.00;99530.66;290924;34;891;-76
2023/01/22 00:19:03;;;;;;;380.90;137.20;;;;;;;7.26;100.00;99534.19;286148;33;5047;-75
2023/01/22 00:19:14;;;;;;;386.77;139.90;;;;;;;7.27;100.00;99525.50;285698;33;4132;-76
2023/01/22 00:19:25;;;;;;;385.30;140.48;;;;;;;7.28;100.00;99532.41;285763;34;5918;-75
2023/01/22 00:19:35;;;;;;;384.95;140.63;;;;;;;7.28;100.00;99535.88;281513;34;5346;-75
2023/01/22 00:19:45;;;;;;;386.60;142.50;;;;;;;7.26;100.00;99526.41;279660;34;8246;-74
2023/01/22 00:19:56;;;;;;;386.70;144.70;;;;;;;7.26;100.00;99531.59;281561;35;3777;-75
2023/01/22 00:20:08;;;;;;;385.37;145.97;;;;;;;7.27;100.00;99533.31;277654;34;5839;-76
2023/01/22 00:20:18;;;;;;;381.95;141.68;;;;;;;7.27;100.00;99531.56;277909;35;6112;-75
2023/01/22 00:22:49;;;;;;;369.64;127.33;;;;;;;7.30;100.00;99530.63;2494419;27;20272;-75
2023/01/22 00:22:59;;;;;;;373.37;129.67;;;;;;;7.30;100.00;99533.22;351333;28;1214;-75
2023/01/22 00:23:10;;;;;;;374.67;128.18;;;;;;;7.29;100.00;99529.75;351535;28;804;-75
2023/01/22 00:23:20;;;;;;;376.00;129.80;;;;;;;7.29;100.00;99523.72;351425;28;863;-75
2023/01/22 00:23:31;;;;;;;375.23;129.65;;;;;;;7.30;100.00;99530.63;348227;28;1302;-76
2023/01/22 00:23:42;;;;;;;378.58;131.57;;;;;;;7.30;100.00;99528.88;347322;28;907;-76
2023/01/22 00:23:52;;;;;;;380.23;130.90;;;;;;;7.31;100.00;99527.13;348749;28;1263;-75
2023/01/22 00:24:03;;;;;;;382.80;131.43;;;;;;;7.31;100.00;99527.13;349917;28;1448;-74
2023/01/22 00:24:13;;;;;;;382.33;132.38;;;;;;;7.31;100.00;99527.97;349229;28;1340;-76
2023/01/22 00:24:24;;;;;;;380.47;131.17;;;;;;;7.32;100.00;99523.63;348636;28;1701;-75
2023/01/22 00:24:34;;;;;;;379.27;132.25;;;;;;;7.32;100.00;99523.63;348618;28;1198;-75
2023/01/22 00:24:45;;;;;;;375.10;131.40;;;;;;;7.32;100.00;99523.63;348693;28;943;-76
2023/01/22 00:24:56;;;;;;;379.48;134.32;;;;;;;7.33;100.00;99525.31;349008;28;883;-76
2023/01/22 00:25:07;;;;;;;379.00;133.82;;;;;;;7.34;100.00;99524.44;348659;28;1439;-76
2023/01/22 00:25:17;;;;;;;380.03;132.10;;;;;;;7.35;100.00;99528.75;350004;28;1187;-76
2023/01/22 00:25:28;;;;;;;374.57;130.93;;;;;;;7.37;100.00;99523.44;349726;28;1246;-76
2023/01/22 00:25:39;;;;;;;373.53;129.63;;;;;;;7.37;100.00;99521.69;350111;28;887;-76
2023/01/22 00:25:58;;;;;;;375.55;131.90;;;;;;;7.37;100.00;99521.69;348723;28;828;-76
2023/01/22 00:26:10;;;;;;;376.50;134.82;;;;;;;7.38;100.00;99523.41;343442;28;4918;-75
2023/01/22 00:26:22;;;;;;;380.80;135.23;;;;;;;7.39;100.00;99525.13;348684;28;3435;-75
2023/01/22 00:26:32;;;;;;;389.13;139.45;;;;;;;7.39;100.00;99524.25;347351;28;1425;-75
2023/01/22 00:26:42;;;;;;;387.50;136.55;;;;;;;7.40;100.00;99525.97;348815;28;3531;-75
2023/01/22 00:26:53;;;;;;;381.33;133.93;;;;;;;7.40;100.00;99523.38;347867;28;1310;-76
2023/01/22 00:27:03;;;;;;;380.00;129.37;;;;;;;7.40;100.00;99524.22;348203;28;3942;-76
2023/01/22 00:27:14;;;;;;;384.27;125.47;;;;;;;7.39;100.00;99525.13;344107;28;5752;-76
2023/01/22 00:27:24;;;;;;;386.70;123.28;;;;;;;7.39;100.00;99525.13;343357;28;1725;-75
2023/01/22 00:27:35;;;;;;;382.00;122.32;;;;;;;7.39;100.00;99519.91;344608;28;2131;-75
2023/01/22 00:27:48;;;;;;;373.33;123.40;;;;;;;7.38;100.00;99522.56;348417;28;3419;-77
2023/01/22 00:27:59;;;;;;;365.88;119.35;;;;;;;7.39;100.00;99519.06;346343;28;642;-76
2023/01/22 00:28:09;;;;;;;364.83;118.87;;;;;;;7.38;100.00;99523.41;342951;28;5518;-75
2023/01/22 00:28:20;;;;;;;371.17;120.57;;;;;;;7.37;100.00;99521.69;345508;28;3439;-75
2023/01/22 00:28:32;;;;;;;375.27;124.57;;;;;;;7.38;100.00;99520.81;348103;28;2027;-75
2023/01/22 00:28:44;;;;;;;376.65;123.97;;;;;;;7.37;100.00;99526.91;343853;28;3616;-75
2023/01/22 00:28:54;;;;;;;374.27;124.28;;;;;;;7.37;100.00;99519.09;345397;28;979;-75
2023/01/22 00:29:05;;;;;;;375.50;125.87;;;;;;;7.38;100.00;99522.56;346170;28;5393;-75
2023/01/22 00:29:15;;;;;;;375.47;125.30;;;;;;;7.38;100.00;99525.16;344499;28;3658;-76
2023/01/22 00:29:28;;;;;;;376.05;122.75;;;;;;;7.38;100.00;99523.41;344845;28;1220;-75
2023/01/22 00:29:39;;;;;;;376.77;124.07;;;;;;;7.38;100.00;99522.56;345973;28;3281;-75
2023/01/22 00:29:50;;;;;;;377.00;124.82;;;;;;;7.38;100.00;99523.41;344754;28;884;-75
2023/01/22 00:30:00;;;;;;;373.75;123.80;;;;;;;7.38;100.00;99526.00;343677;28;4196;-75
2023/01/22 00:30:11;;;;;;;375.33;122.73;;;;;;;7.37;100.00;99521.69;341013;28;3516;-75
2023/01/22 00:30:22;;;;;;;375.30;123.22;;;;;;;7.37;100.00;99519.09;340068;29;2233;-75
2023/01/22 00:30:33;;;;;;;375.48;124.72;;;;;;;7.37;100.00;99529.50;334102;29;1829;-76
2023/01/22 00:30:43;;;;;;;377.70;124.73;;;;;;;7.36;100.00;99525.25;337263;29;3783;-76
2023/01/22 00:30:58;;;;;;;375.33;123.28;;;;;;;7.37;100.00;99526.06;339103;29;1352;-76
2023/01/22 00:31:11;;;;;;;375.77;122.47;;;;;;;7.38;100.00;99527.75;335932;29;5929;-75
2023/01/22 00:31:22;;;;;;;377.85;123.43;;;;;;;7.37;100.00;99529.50;334062;29;3723;-75
2023/01/22 00:31:32;;;;;;;381.30;124.43;;;;;;;7.38;100.00;99523.41;333073;29;1546;-76
2023/01/22 00:31:43;;;;;;;390.67;129.73;;;;;;;7.39;100.00;99530.31;332880;29;3432;-76
2023/01/22 00:31:53;;;;;;;392.55;132.60;;;;;;;7.37;100.00;99532.13;330530;29;1279;-76
2023/01/22 00:32:04;;;;;;;397.17;136.03;;;;;;;7.38;100.00;99528.63;328996;29;5366;-75
2023/01/22 00:32:14;;;;;;;391.73;135.85;;;;;;;7.39;100.00;99530.31;331440;29;3638;-75
2023/01/22 00:32:25;;;;;;;397.17;137.90;;;;;;;7.39;100.00;99530.31;334972;29;1260;-75
2023/01/22 00:32:35;;;;;;;393.00;137.32;;;;;;;7.38;100.00;99533.81;331565;29;2080;-76
2023/01/22 00:32:46;;;;;;;395.03;137.27;;;;;;;7.40;100.00;99537.25;333010;29;3606;-76
2023/01/22 00:32:56;;;;;;;396.02;132.95;;;;;;;7.40;100.00;99536.38;329749;29;4018;-76
2023/01/22 00:33:06;;;;;;;406.60;134.97;;;;;;;7.38;100.00;99528.63;326143;29;5705;-75
2023/01/22 00:33:17;;;;;;;409.60;135.48;;;;;;;7.40;100.00;99531.19;329604;29;3380;-75
2023/01/22 00:33:27;;;;;;;407.20;139.17;;;;;;;7.37;100.00;99532.13;326766;30;1863;-75
2023/01/22 00:33:38;;;;;;;405.08;143.27;;;;;;;7.36;100.00;99530.44;325262;29;3644;-75
2023/01/22 00:33:49;;;;;;;404.52;143.82;;;;;;;7.34;100.00;99527.88;329401;30;903;-75
2023/01/22 00:33:59;;;;;;;405.17;146.03;;;;;;;7.33;100.00;99531.38;327506;29;4936;-75
2023/01/22 00:34:09;;;;;;;404.92;145.45;;;;;;;7.32;100.00;99528.81;326714;30;3393;-75
2023/01/22 00:34:20;;;;;;;403.93;144.60;;;;;;;7.32;100.00;99523.63;323885;30;3360;-75
2023/01/22 00:34:30;;;;;;;400.25;141.13;;;;;;;7.33;100.00;99525.31;327330;30;1999;-75
2023/01/22 00:34:41;;;;;;;396.57;136.90;;;;;;;7.33;100.00;99527.94;324454;30;3418;-75
2023/01/22 00:34:54;;;;;;;395.90;136.45;;;;;;;7.33;100.00;99525.31;324554;30;947;-75
2023/01/22 00:35:05;;;;;;;392.95;135.73;;;;;;;7.35;100.00;99526.13;313022;31;4467;-75
2023/01/22 00:35:15;;;;;;;391.63;134.68;;;;;;;7.35;100.00;99523.53;320705;30;3669;-75
2023/01/22 00:35:26;;;;;;;391.80;136.63;;;;;;;7.36;100.00;99525.25;318779;30;2534;-75
2023/01/22 00:35:36;;;;;;;393.23;134.90;;;;;;;7.37;100.00;99526.91;319312;30;6115;-75
2023/01/22 00:35:46;;;;;;;390.57;132.53;;;;;;;7.38;100.00;99526.00;321119;30;2937;-75
2023/01/22 00:36:07;;;;;;;386.70;130.60;;;;;;;7.40;100.00;99523.38;320338;30;3822;-75
2023/01/22 00:36:20;;;;;;;389.95;128.77;;;;;;;7.39;100.00;99519.91;319041;30;3697;-73
2023/01/22 00:36:30;;;;;;;393.02;132.10;;;;;;;7.39;100.00;99524.25;317992;30;2043;-75
2023/01/22 00:36:40;;;;;;;390.45;131.98;;;;;;;7.39;100.00;99519.06;316253;31;3626;-75
2023/01/22 00:36:51;;;;;;;386.63;130.30;;;;;;;7.38;100.00;99518.19;317801;31;1400;-75
2023/01/22 00:37:03;;;;;;;383.23;126.90;;;;;;;7.39;100.00;99519.06;316053;30;2435;-75
2023/01/22 00:37:14;;;;;;;383.45;128.35;;;;;;;7.39;100.00;99524.25;313410;31;2717;-75
2023/01/22 00:37:24;;;;;;;383.80;130.75;;;;;;;7.39;100.00;99516.44;311206;31;3047;-75
2023/01/22 00:37:35;;;;;;;379.70;128.70;;;;;;;7.40;100.00;99520.75;310497;31;859;-75
2023/01/22 00:37:47;;;;;;;381.25;126.13;;;;;;;7.41;100.00;99518.13;307407;31;3463;-75
2023/01/22 00:37:58;;;;;;;379.77;121.85;;;;;;;7.41;100.00;99522.47;308517;31;3352;-75
2023/01/22 00:38:08;;;;;;;382.48;123.95;;;;;;;7.43;100.00;99516.31;308054;31;3410;-75
2023/01/22 00:38:18;;;;;;;378.13;123.50;;;;;;;7.43;100.00;99518.91;306124;32;1301;-75
2023/01/22 00:38:31;;;;;;;380.17;125.53;;;;;;;7.42;100.00;99525.03;308399;31;2522;-75
2023/01/22 00:38:42;;;;;;;378.35;122.07;;;;;;;7.42;100.00;99519.81;308967;31;2182;-75
2023/01/22 00:38:52;;;;;;;375.83;120.80;;;;;;;7.43;100.00;99518.06;311270;31;748;-75
2023/01/22 00:39:02;;;;;;;373.97;119.17;;;;;;;7.43;100.00;99521.53;308400;31;2860;-75
2023/01/22 00:39:13;;;;;;;374.42;119.18;;;;;;;7.43;100.00;99521.53;304691;32;3973;-75
2023/01/22 00:39:23;;;;;;;373.17;119.47;;;;;;;7.44;100.00;99519.78;304175;32;3703;-75
2023/01/22 00:39:34;;;;;;;370.70;120.65;;;;;;;7.45;100.00;99518.88;302873;32;1286;-75
2023/01/22 00:39:44;;;;;;;371.03;123.60;;;;;;;7.45;100.00;99514.53;298497;32;4911;-75
2023/01/22 00:39:55;;;;;;;375.50;125.15;;;;;;;7.44;100.00;99514.56;299203;32;5751;-75
2023/01/22 00:40:06;;;;;;;377.08;127.00;;;;;;;7.44;100.00;99515.41;302012;32;903;-75
2023/01/22 00:40:16;;;;;;;378.20;127.22;;;;;;;7.44;100.00;99512.81;300080;32;4243;-75
2023/01/22 00:40:29;;;;;;;376.47;126.73;;;;;;;7.45;100.00;99517.13;298592;32;4588;-75
2023/01/22 00:40:39;;;;;;;376.52;125.43;;;;;;;7.45;100.00;99518.88;298383;32;3545;-75
2023/01/22 00:40:50;;;;;;;377.08;125.95;;;;;;;7.47;100.00;99522.28;297860;33;948;-75
2023/01/22 00:41:01;;;;;;;372.70;123.47;;;;;;;7.45;100.00;99517.13;297603;32;3202;-75
2023/01/22 00:41:12;;;;;;;373.30;123.56;;;;;;;7.46;100.00;99516.22;295749;32;4455;-75
2023/01/22 00:41:22;;;;;;;376.13;124.03;;;;;;;7.47;100.00;99520.53;295982;33;803;-75
2023/01/22 00:41:33;;;;;;;381.75;127.40;;;;;;;7.47;100.00;99523.13;291015;34;788;-75
2023/01/22 00:41:43;;;;;;;381.57;128.23;;;;;;;7.46;100.00;99521.44;291304;33;6324;-75
2023/01/22 00:41:54;;;;;;;379.02;128.90;;;;;;;7.47;100.00;99524.91;293611;33;6909;-75
2023/01/22 00:42:04;;;;;;;376.80;129.57;;;;;;;7.46;100.00;99523.19;291984;33;874;-75
2023/01/22 00:42:15;;;;;;;373.88;128.20;;;;;;;7.44;100.00;99523.22;290577;33;7647;-75
2023/01/22 00:42:25;;;;;;;374.70;129.40;;;;;;;7.45;100.00;99524.09;288083;33;6087;-75
2023/01/22 00:42:35;;;;;;;375.92;128.65;;;;;;;7.44;100.00;99517.16;289133;34;887;-75
2023/01/22 00:42:46;;;;;;;376.47;128.50;;;;;;;7.44;100.00;99525.84;289906;33;6241;-75
2023/01/22 00:42:56;;;;;;;380.27;125.65;;;;;;;7.44;100.00;99523.22;290501;33;4955;-75
2023/01/22 00:43:06;;;;;;;380.40;125.83;;;;;;;7.44;100.00;99524.97;289982;34;843;-75
2023/01/22 00:43:17;;;;;;;381.20;125.67;;;;;;;7.44;100.00;99522.38;284343;34;4628;-75
2023/01/22 00:43:28;;;;;;;374.27;124.67;;;;;;;7.44;100.00;99528.44;283517;34;6850;-75
2023/01/22 00:43:39;;;;;;;378.83;125.80;;;;;;;7.45;100.00;99526.69;283980;34;8141;-75
2023/01/22 00:43:49;;;;;;;378.55;126.57;;;;;;;7.44;100.00;99528.44;283498;34;1508;-75
2023/01/22 00:44:00;;;;;;;381.67;127.80;;;;;;;7.44;100.00;99528.44;283796;34;8073;-75
2023/01/22 00:44:10;;;;;;;376.63;125.70;;;;;;;7.45;100.00;99527.53;283888;34;9227;-75
2023/01/22 00:44:21;;;;;;;379.08;127.35;;;;;;;7.45;100.00;99532.75;281776;35;738;-75
2023/01/22 00:44:31;;;;;;;375.97;127.50;;;;;;;7.46;100.00;99536.19;280250;35;10185;-75
2023/01/22 00:46:29;;;;;;;367.92;118.76;;;;;;;7.49;100.00;99547.38;2492338;27;20494;-75
2023/01/22 00:46:39;;;;;;;375.27;124.77;;;;;;;7.50;100.00;99543.88;352878;28;1808;-74
2023/01/22 00:46:51;;;;;;;377.37;124.77;;;;;;;7.49;100.00;99547.38;349286;28;6093;-74
2023/01/22 00:47:01;;;;;;;378.52;123.05;;;;;;;7.48;100.00;99547.44;347777;28;1529;-75
2023/01/22 00:47:12;;;;;;;378.00;121.33;;;;;;;7.47;100.00;99543.97;345848;28;5158;-74
2023/01/22 00:47:22;;;;;;;380.75;122.35;;;;;;;7.46;100.00;99547.47;346547;28;3362;-74
2023/01/22 00:47:34;;;;;;;377.60;124.97;;;;;;;7.45;100.00;99545.78;350262;28;1192;-74
2023/01/22 00:47:44;;;;;;;376.92;125.88;;;;;;;7.45;100.00;99543.16;347330;28;3526;-75
2023/01/22 00:47:55;;;;;;;377.20;127.97;;;;;;;7.47;100.00;99548.31;350459;28;853;-75
2023/01/22 00:48:05;;;;;;;376.60;126.03;;;;;;;7.45;100.00;99556.19;349844;28;4130;-74
2023/01/22 00:48:16;;;;;;;377.38;125.18;;;;;;;7.44;100.00;99546.66;350300;28;5492;-74
2023/01/22 00:48:26;;;;;;;378.00;122.87;;;;;;;7.45;100.00;99553.56;350277;28;3066;-74
2023/01/22 00:48:37;;;;;;;380.35;124.32;;;;;;;7.45;100.00;99556.19;349120;28;1906;-75
2023/01/22 00:48:50;;;;;;;381.83;122.97;;;;;;;7.45;100.00;99550.13;350293;28;3402;-76
2023/01/22 00:49:02;;;;;;;373.70;118.80;;;;;;;7.44;100.00;99551.88;347564;28;917;-76
2023/01/22 00:49:12;;;;;;;374.50;117.47;;;;;;;7.44;100.00;99554.47;345651;28;5510;-75
2023/01/22 00:49:23;;;;;;;372.77;117.53;;;;;;;7.45;100.00;99556.19;344843;28;3458;-75
2023/01/22 00:49:33;;;;;;;377.02;121.50;;;;;;;7.47;100.00;99554.38;347683;28;1965;-75
2023/01/22 00:49:44;;;;;;;373.63;121.50;;;;;;;7.48;100.00;99555.25;347272;28;3433;-75
2023/01/22 00:49:54;;;;;;;374.60;123.00;;;;;;;7.50;100.00;99563.84;346081;28;1197;-75
2023/01/22 00:50:05;;;;;;;374.80;121.30;;;;;;;7.49;100.00;99552.59;343262;28;5021;-74
2023/01/22 00:50:15;;;;;;;374.63;123.25;;;;;;;7.49;100.00;99555.19;342149;28;6063;-74
2023/01/22 00:50:26;;;;;;;375.10;125.13;;;;;;;7.50;100.00;99561.25;344856;28;1289;-75
2023/01/22 00:50:36;;;;;;;375.52;128.15;;;;;;;7.51;100.00;99556.00;345881;28;1851;-75
2023/01/22 00:50:47;;;;;;;376.63;126.70;;;;;;;7.51;100.00;99560.38;347237;28;3783;-75
2023/01/22 00:50:58;;;;;;;376.17;123.80;;;;;;;7.50;100.00;99559.50;349085;28;823;-75
2023/01/22 00:51:08;;;;;;;375.17;122.57;;;;;;;7.49;100.00;99557.81;346846;28;5707;-75
2023/01/22 00:51:19;;;;;;;374.20;121.68;;;;;;;7.51;100.00;99561.22;343589;28;3272;-74
2023/01/22 00:51:29;;;;;;;374.13;120.80;;;;;;;7.49;100.00;99557.81;340805;28;1833;-75
2023/01/22 00:51:40;;;;;;;372.85;119.15;;;;;;;7.50;100.00;99554.28;340841;29;3779;-76
2023/01/22 00:51:51;;;;;;;373.60;119.15;;;;;;;7.49;100.00;99557.81;343737;28;1300;-75
2023/01/22 00:52:01;;;;;;;374.17;119.30;;;;;;;7.49;100.00;99556.94;344368;28;3945;-75
2023/01/22 00:52:11;;;;;;;374.07;120.13;;;;;;;7.49;100.00;99560.41;339402;28;5591;-75
2023/01/22 00:52:22;;;;;;;372.10;121.50;;;;;;;7.50;100.00;99558.66;340210;28;3827;-75
2023/01/22 00:52:32;;;;;;;374.75;123.15;;;;;;;7.47;100.00;99554.38;342273;28;739;-75
2023/01/22 00:52:43;;;;;;;376.17;123.27;;;;;;;7.44;100.00;99549.25;342363;28;3764;-75
2023/01/22 00:52:53;;;;;;;376.85;123.13;;;;;;;7.46;100.00;99549.22;343204;28;1151;-75
2023/01/22 00:53:04;;;;;;;375.70;123.27;;;;;;;7.46;100.00;99546.63;342760;28;3839;-75
2023/01/22 00:53:14;;;;;;;374.02;124.13;;;;;;;7.43;100.00;99550.16;340730;28;5701;-75
2023/01/22 00:53:24;;;;;;;371.40;121.43;;;;;;;7.44;100.00;99541.47;340874;28;3694;-75
2023/01/22 00:53:35;;;;;;;371.02;122.53;;;;;;;7.44;100.00;99538.84;340758;29;1783;-75
2023/01/22 00:53:46;;;;;;;367.92;120.35;;;;;;;7.44;100.00;99544.06;339311;29;3680;-75
2023/01/22 00:53:56;;;;;;;370.80;122.43;;;;;;;7.43;100.00;99541.50;341460;28;891;-75
2023/01/22 00:54:07;;;;;;;371.90;123.07;;;;;;;7.41;100.00;99541.53;338654;28;4367;-74
2023/01/22 00:54:18;;;;;;;371.27;123.28;;;;;;;7.41;100.00;99541.53;336930;29;3363;-74
2023/01/22 00:54:29;;;;;;;369.03;124.30;;;;;;;7.41;100.00;99543.28;339366;29;3810;-74
2023/01/22 00:54:39;;;;;;;371.40;127.22;;;;;;;7.40;100.00;99539.84;337077;29;2116;-75
2023/01/22 00:54:49;;;;;;;378.25;127.50;;;;;;;7.40;100.00;99536.38;337902;28;3416;-75
2023/01/22 00:55:00;;;;;;;377.33;124.53;;;;;;;7.39;100.00;99545.09;339353;29;3776;-75